• Join FlightAware (Why Join?)
  • Login
  • US Flag 
11:24AM EDT


 

Airport Tracker/Info


-or-


 

Live Flight TrackerFlight Track Log ✈ SKW6278 ✈ 29-Apr-2013 ✈ KCOS - KDEN

Flight Track Log - Related Links

Times and Time Zones

All times are in EDT time to prevent confusion due to time zone crossing. See the SKW6278 flight status page for this flight to view local times or setup timezone preferences in your user account.

Time Position Orientation Groundspeed Altitude Reporting Facility
EDT Latitude Longitude Course Direction KTS MPH feet Rate Location/Type
01:32PM 39.1111 -104.5972 11° North  Level FlightAware Approximate
01:33PM 39.2097 -104.5500 North  Level FlightAware Approximate
01:33PM 38.8664 -104.5825 353° North 294 338 12,000  Level Denver Center
01:34PM 39.3178 -104.5540 350° North  Level FlightAware Approximate
01:34PM 38.9492 -104.5856 358° North 318 366 11,900  Level Denver Center
01:35PM 39.3643 -104.5643 350° North  Level FlightAware Approximate
01:35PM 39.0561 -104.5908 358° North 323 372 11,900  Level Denver Center
01:36PM 39.4108 -104.5746 350° North  Level FlightAware Approximate
01:36PM 39.1450 -104.5956 358° North 333 383 11,900  Level Denver Center
01:37PM 39.4643 -104.5855 353° North  Level FlightAware Approximate
01:37PM 39.2367 -104.6050 355° North 301 346 11,000  Level Denver Center
01:38PM 39.5182 -104.5938 353° North  Level FlightAware Approximate
01:38PM 39.3117 -104.6189 352° North 264 304 9,900  Level Denver Center
01:39PM 39.3803 -104.6331 351° North 249 287 10,000 60 Climbing Denver Center
01:40PM 39.4553 -104.6481 351° North 253 291 10,100  Climbing Denver Center
01:41PM 39.5300 -104.6639 351° North 271 312 10,000 -120 Descending Denver Center
01:42PM 39.6014 -104.6636 360° North 238 274 9,900 -540 Descending Denver Center
01:43PM 39.6475 -104.6631 North 202 232 8,900 -1,140 Descending Denver Center
01:44PM 39.7158 -104.6619 North 199 229 7,600 -1,080 Descending Denver Center
01:45PM 39.7689 -104.6617 360° North 192 221 6,700 -840 Descending Denver Center
01:46PM 39.8111 -104.6611 North 148 170 5,900 -540 Descending Denver Center
01:47PM 39.8533 -104.6606 North 153 176 5,600 780 Descending Denver Center
01:48PM 39.8917 -104.6114 45° Northeast 232 267 7,600 2,100 Climbing Denver Center
01:49PM 39.8833 -104.5833 111° Southeast 257 296 8,700 1,320 Climbing Denver TRACON
01:49PM 39.8636 -104.5222 113° Southeast 264 304 9,000 120 Climbing Denver Center
01:50PM 39.8356 -104.4358 113° Southeast 255 293 8,900 -660 Descending Denver Center
01:51PM 39.8708 -104.3719 54° Northeast 247 284 7,700 -960 Descending Denver Center
01:52PM 39.8803 -104.4372 281° West 213 245 7,000 -720 Descending Denver Center